createdAt,value
2023-05-14T00:01:16.693Z,8.20
2023-05-14T00:03:43.713Z,7.90
2023-05-14T00:06:10.897Z,8.45
2023-05-14T00:08:37.603Z,9.02
2023-05-14T00:11:04.343Z,8.48
2023-05-14T00:13:30.979Z,8.85
2023-05-14T00:15:57.676Z,8.68
2023-05-14T00:18:24.467Z,8.55
2023-05-14T00:20:54.658Z,8.00
2023-05-14T00:23:22.652Z,8.55
2023-05-14T00:25:50.052Z,8.45
2023-05-14T00:28:16.861Z,7.70
2023-05-14T00:30:44.277Z,8.52
2023-05-14T00:33:10.958Z,9.68
2023-05-14T00:35:37.671Z,8.68
2023-05-14T00:38:04.633Z,8.63
2023-05-14T00:40:31.534Z,8.73
2023-05-14T00:42:58.205Z,8.63
2023-05-14T00:45:25.734Z,8.02
2023-05-14T00:47:53.478Z,8.70
2023-05-14T00:50:20.954Z,9.75
2023-05-14T00:52:48.186Z,9.98
2023-05-14T00:55:16.618Z,9.77
2023-05-14T00:57:43.461Z,10.75
2023-05-14T01:00:10.940Z,10.18
2023-05-14T01:02:37.734Z,8.70
2023-05-14T01:05:05.027Z,8.68
2023-05-14T01:07:43.195Z,8.15
2023-05-14T01:10:37.774Z,7.43
2023-05-14T01:13:13.872Z,7.50
2023-05-14T01:15:41.809Z,7.03
2023-05-14T01:18:11.765Z,5.35
2023-05-14T01:20:38.478Z,4.63
2023-05-14T01:23:05.197Z,4.70
2023-05-14T01:25:32.367Z,5.97
2023-05-14T01:28:20.550Z,5.50
2023-05-14T01:31:11.114Z,4.15
2023-05-14T01:33:41.367Z,5.60
2023-05-14T01:36:08.115Z,5.53
2023-05-14T01:38:36.436Z,6.15
2023-05-14T01:41:04.662Z,6.53
2023-05-14T01:43:32.220Z,7.68
2023-05-14T01:45:59.060Z,7.10
2023-05-14T01:48:25.771Z,6.47
2023-05-14T01:50:52.514Z,7.45
2023-05-14T01:53:19.183Z,7.00
2023-05-14T01:55:45.922Z,6.97
2023-05-14T01:58:12.574Z,7.03
2023-05-14T02:00:39.218Z,6.38
2023-05-14T02:03:05.969Z,6.00
2023-05-14T02:05:32.650Z,6.18
2023-05-14T02:07:59.280Z,6.15
2023-05-14T02:10:26.151Z,6.95
2023-05-14T02:12:52.848Z,6.53
2023-05-14T02:15:19.483Z,8.07
2023-05-14T02:17:46.525Z,8.55
2023-05-14T02:20:13.492Z,7.70
2023-05-14T02:22:42.267Z,6.63
2023-05-14T02:25:09.599Z,6.55
2023-05-14T02:27:36.296Z,6.72
2023-05-14T02:30:04.498Z,5.72
2023-05-14T02:32:31.258Z,6.38
2023-05-14T02:34:57.970Z,6.38
2023-05-14T02:37:24.614Z,6.70
2023-05-14T02:39:51.278Z,6.55
2023-05-14T02:42:17.917Z,6.50
2023-05-14T02:44:44.663Z,6.50
2023-05-14T02:47:11.459Z,7.22
2023-05-14T02:49:38.143Z,5.85
2023-05-14T02:52:05.497Z,6.18
2023-05-14T02:54:32.177Z,5.40
2023-05-14T02:56:58.818Z,6.18
2023-05-14T02:59:25.504Z,6.43
2023-05-14T03:01:52.752Z,6.82
2023-05-14T03:04:20.214Z,6.78
2023-05-14T03:06:46.874Z,6.88
2023-05-14T03:09:14.319Z,7.32
2023-05-14T03:11:40.987Z,6.75
2023-05-14T03:14:07.670Z,9.32
2023-05-14T03:16:34.387Z,9.48
2023-05-14T03:19:01.128Z,9.50
2023-05-14T03:21:27.846Z,8.98
2023-05-14T03:23:54.541Z,8.50
2023-05-14T03:26:21.585Z,6.78
2023-05-14T03:28:48.437Z,7.30
2023-05-14T03:31:15.237Z,7.30
2023-05-14T03:33:42.106Z,6.75
2023-05-14T03:36:09.080Z,7.10
2023-05-14T03:38:35.735Z,7.18
2023-05-14T03:41:02.426Z,7.22
2023-05-14T03:43:29.059Z,7.50
2023-05-14T03:45:55.717Z,7.45
2023-05-14T03:48:22.454Z,6.90
2023-05-14T03:50:49.241Z,8.55
2023-05-14T03:53:16.813Z,8.13
2023-05-14T03:55:43.477Z,7.75
2023-05-14T03:58:14.027Z,7.35
2023-05-14T04:00:41.885Z,8.38
2023-05-14T04:03:08.760Z,8.75
2023-05-14T04:05:35.876Z,8.55
2023-05-14T04:08:02.558Z,7.50
2023-05-14T04:10:29.719Z,7.00
2023-05-14T04:12:56.371Z,8.15
2023-05-14T04:15:23.300Z,7.70
2023-05-14T04:17:49.977Z,7.55
2023-05-14T04:20:16.673Z,7.82
2023-05-14T04:22:43.370Z,9.20
2023-05-14T04:25:10.225Z,8.50
2023-05-14T04:27:36.853Z,8.25
2023-05-14T04:30:03.876Z,7.00
2023-05-14T04:32:30.533Z,7.95
2023-05-14T04:34:57.266Z,7.15
2023-05-14T04:37:24.283Z,7.85
2023-05-14T04:39:51.088Z,8.27
2023-05-14T04:42:17.740Z,7.75
2023-05-14T04:44:44.431Z,7.82
2023-05-14T04:47:11.231Z,8.23
2023-05-14T04:49:37.881Z,8.02
2023-05-14T04:52:04.787Z,8.13
2023-05-14T04:54:31.553Z,9.77
2023-05-14T04:57:03.040Z,8.63
2023-05-14T04:59:30.636Z,9.13
2023-05-14T05:01:57.546Z,10.02
2023-05-14T05:04:24.700Z,10.05
2023-05-14T05:06:51.491Z,10.10
2023-05-14T05:09:18.868Z,9.75
2023-05-14T05:11:45.479Z,8.48
2023-05-14T05:14:12.434Z,8.15
2023-05-14T05:16:39.084Z,7.45
2023-05-14T05:19:05.861Z,6.90
2023-05-14T05:21:32.632Z,6.72
2023-05-14T05:23:59.253Z,5.95
2023-05-14T05:26:27.158Z,4.68
2023-05-14T05:28:54.091Z,4.53
2023-05-14T05:31:20.822Z,4.65
2023-05-14T05:33:47.672Z,5.47
2023-05-14T05:36:14.447Z,8.43
2023-05-14T05:38:41.373Z,5.35
2023-05-14T05:41:08.119Z,5.03
2023-05-14T05:43:35.062Z,4.72
2023-05-14T05:46:01.836Z,3.63
2023-05-14T05:48:28.606Z,3.50
2023-05-14T05:50:55.537Z,3.20
2023-05-14T05:53:22.247Z,3.85
2023-05-14T05:55:51.414Z,3.83
2023-05-14T05:58:19.246Z,3.45
2023-05-14T06:00:49.344Z,3.58
2023-05-14T06:05:43.037Z,4.00
2023-05-14T06:08:09.844Z,3.97
2023-05-14T06:10:37.450Z,3.70
2023-05-14T06:13:04.158Z,3.72
2023-05-14T06:15:30.806Z,3.78
2023-05-14T06:17:57.716Z,3.28
2023-05-14T06:20:24.687Z,3.47
2023-05-14T06:22:51.761Z,3.40
2023-05-14T06:25:18.757Z,3.60
2023-05-14T06:27:45.497Z,3.30
2023-05-14T06:30:13.033Z,3.95
2023-05-14T06:32:39.733Z,3.45
2023-05-14T06:35:07.012Z,4.15
2023-05-14T06:37:33.659Z,3.80
2023-05-14T06:40:01.509Z,3.97
2023-05-14T06:42:28.225Z,4.00
2023-05-14T06:44:54.899Z,3.92
2023-05-14T06:47:21.760Z,4.15
2023-05-14T06:49:48.523Z,4.38
2023-05-14T06:52:15.174Z,3.97
2023-05-14T06:54:41.857Z,3.97
2023-05-14T06:57:08.522Z,3.80
2023-05-14T06:59:35.879Z,3.55
2023-05-14T07:02:03.180Z,3.83
2023-05-14T07:04:29.932Z,3.40
2023-05-14T07:06:56.582Z,3.97
2023-05-14T07:09:23.237Z,4.07
2023-05-14T07:11:49.941Z,3.85
2023-05-14T07:14:16.618Z,3.35
2023-05-14T07:16:43.310Z,3.60
2023-05-14T07:19:10.159Z,3.50
2023-05-14T07:21:36.862Z,3.45
2023-05-14T07:24:03.736Z,3.35
2023-05-14T07:26:31.475Z,3.90
2023-05-14T07:28:58.186Z,3.88
2023-05-14T07:31:24.941Z,3.78
2023-05-14T07:33:51.651Z,4.28
2023-05-14T07:36:18.309Z,4.20
2023-05-14T07:38:44.999Z,4.13
2023-05-14T07:41:12.246Z,3.65
2023-05-14T07:43:40.445Z,3.60
2023-05-14T07:46:07.208Z,4.22
2023-05-14T07:48:33.903Z,3.97
2023-05-14T07:51:00.602Z,3.35
2023-05-14T07:53:27.287Z,4.00
2023-05-14T07:55:54.631Z,3.92
2023-05-14T07:58:21.368Z,4.22
2023-05-14T08:00:48.002Z,4.45
2023-05-14T08:03:15.087Z,4.05
2023-05-14T08:05:41.889Z,3.92
2023-05-14T08:08:08.550Z,3.85
2023-05-14T08:10:35.307Z,3.85
2023-05-14T08:13:02.288Z,4.32
2023-05-14T08:15:29.086Z,4.00
2023-05-14T08:17:56.017Z,4.03
2023-05-14T08:20:23.061Z,3.38
2023-05-14T08:22:49.834Z,3.58
2023-05-14T08:25:16.662Z,4.05
2023-05-14T08:27:43.324Z,4.20
2023-05-14T08:30:10.402Z,3.83
2023-05-14T08:32:38.647Z,3.72
2023-05-14T08:35:05.905Z,4.20
2023-05-14T08:37:32.720Z,3.78
2023-05-14T08:39:59.415Z,4.00
2023-05-14T08:42:28.584Z,4.07
2023-05-14T08:45:02.854Z,3.50
2023-05-14T08:47:30.825Z,3.13
2023-05-14T08:50:05.630Z,3.38
2023-05-14T08:52:33.177Z,3.50
2023-05-14T08:55:02.963Z,3.60
2023-05-14T08:59:58.573Z,3.22
2023-05-14T09:02:31.272Z,3.00
2023-05-14T09:05:00.041Z,3.70
2023-05-14T09:07:27.113Z,3.72
2023-05-14T09:09:54.856Z,3.28
2023-05-14T09:12:22.286Z,4.10
2023-05-14T09:14:50.090Z,3.17
2023-05-14T09:17:17.942Z,3.88
2023-05-14T09:19:49.050Z,3.30
2023-05-14T09:22:18.179Z,3.15
2023-05-14T09:24:45.755Z,3.27
2023-05-14T09:27:20.422Z,3.00
2023-05-14T09:29:48.207Z,2.97
2023-05-14T09:32:14.891Z,2.58
2023-05-14T09:34:42.257Z,3.45
2023-05-14T09:37:09.724Z,3.13
2023-05-14T09:39:37.578Z,3.38
2023-05-14T09:42:04.982Z,3.28
2023-05-14T09:44:32.062Z,3.40
2023-05-14T09:46:59.314Z,3.55
2023-05-14T09:49:26.578Z,3.13
2023-05-14T09:51:53.671Z,3.20
2023-05-14T09:54:20.910Z,3.17
2023-05-14T09:56:48.051Z,3.33
2023-05-14T09:59:15.293Z,3.67
2023-05-14T10:01:44.324Z,3.47
2023-05-14T10:04:12.654Z,3.38
2023-05-14T10:06:42.071Z,3.33
2023-05-14T10:09:12.070Z,3.15
2023-05-14T10:11:39.552Z,3.45
2023-05-14T10:14:17.873Z,3.22
2023-05-14T10:16:51.029Z,3.45
2023-05-14T10:19:18.983Z,4.85
2023-05-14T10:21:49.002Z,2.80
2023-05-14T10:24:16.823Z,3.72
2023-05-14T10:26:44.076Z,3.28
2023-05-14T10:29:11.530Z,3.40
2023-05-14T10:31:54.648Z,3.30
2023-05-14T10:34:41.510Z,3.40
2023-05-14T10:37:10.521Z,3.38
2023-05-14T10:39:59.307Z,3.38
2023-05-14T10:42:33.254Z,3.10
2023-05-14T10:45:01.877Z,3.00
2023-05-14T10:47:29.592Z,3.30
2023-05-14T10:49:57.776Z,3.22
2023-05-14T10:52:25.533Z,3.55
2023-05-14T10:55:02.845Z,3.20
2023-05-14T10:57:31.597Z,3.42
2023-05-14T10:59:59.817Z,3.72
2023-05-14T11:02:26.959Z,3.08
2023-05-14T11:05:03.956Z,3.70
2023-05-14T11:07:32.522Z,2.78
2023-05-14T11:10:03.581Z,3.45
2023-05-14T11:12:31.070Z,3.28
2023-05-14T11:14:59.268Z,2.95
2023-05-14T11:17:30.619Z,3.30
2023-05-14T11:19:58.145Z,3.03
2023-05-14T11:22:25.560Z,3.30
2023-05-14T11:24:52.714Z,3.55
2023-05-14T11:27:20.142Z,3.08
2023-05-14T11:29:47.866Z,3.08
2023-05-14T11:32:15.697Z,3.25
2023-05-14T11:34:44.763Z,3.28
2023-05-14T11:37:13.010Z,3.42
2023-05-14T11:39:40.545Z,3.10
2023-05-14T11:42:12.255Z,3.17
2023-05-14T11:44:39.681Z,3.38
2023-05-14T11:47:07.007Z,3.03
2023-05-14T11:49:36.087Z,3.28
2023-05-14T11:52:03.986Z,2.83
2023-05-14T11:54:31.602Z,3.05
2023-05-14T11:56:59.593Z,2.90
2023-05-14T11:59:28.420Z,3.05
2023-05-14T12:01:56.306Z,3.00
2023-05-14T12:04:23.451Z,2.97
2023-05-14T12:06:51.325Z,2.80
2023-05-14T12:09:19.141Z,3.13
2023-05-14T12:11:46.917Z,2.78
2023-05-14T12:14:20.697Z,2.80
2023-05-14T12:16:48.799Z,3.22
2023-05-14T12:19:16.634Z,3.38
2023-05-14T12:21:44.369Z,2.78
2023-05-14T12:24:13.205Z,2.85
2023-05-14T12:26:41.055Z,3.03
2023-05-14T12:29:08.204Z,3.20
2023-05-14T12:31:36.403Z,3.28
2023-05-14T12:34:04.056Z,2.83
2023-05-14T12:36:32.681Z,2.80
2023-05-14T12:39:01.657Z,3.10
2023-05-14T12:41:28.866Z,3.17
2023-05-14T12:43:56.106Z,3.03
2023-05-14T12:46:23.476Z,3.00
2023-05-14T12:48:53.091Z,3.10
2023-05-14T12:51:20.591Z,3.10
2023-05-14T12:53:47.750Z,2.72
2023-05-14T12:56:14.912Z,3.30
2023-05-14T12:58:42.178Z,2.95
2023-05-14T13:01:09.413Z,3.13
2023-05-14T13:03:36.501Z,2.70
2023-05-14T13:06:03.702Z,2.88
2023-05-14T13:08:30.927Z,3.40
2023-05-14T13:10:58.068Z,3.17
2023-05-14T13:13:25.284Z,3.60
2023-05-14T13:15:53.449Z,4.45
2023-05-14T13:18:20.847Z,4.13
2023-05-14T13:20:48.061Z,2.90
2023-05-14T13:23:15.720Z,3.00
2023-05-14T13:25:42.801Z,3.53
2023-05-14T13:28:09.998Z,3.13
2023-05-14T13:30:37.200Z,3.22
2023-05-14T13:33:04.628Z,3.08
2023-05-14T13:35:31.801Z,3.28
2023-05-14T13:37:58.887Z,3.10
2023-05-14T13:40:26.029Z,3.28
2023-05-14T13:42:53.190Z,3.50
2023-05-14T13:45:20.321Z,3.67
2023-05-14T13:47:48.742Z,3.25
2023-05-14T13:50:16.738Z,3.25
2023-05-14T13:52:43.814Z,3.47
2023-05-14T13:55:10.955Z,2.85
2023-05-14T13:57:39.726Z,3.00
2023-05-14T14:00:07.169Z,3.30
2023-05-14T14:02:34.382Z,3.15
2023-05-14T14:05:01.757Z,3.03
2023-05-14T14:07:28.928Z,3.33
2023-05-14T14:09:56.041Z,3.45
2023-05-14T14:12:23.486Z,3.10
2023-05-14T14:14:51.011Z,3.75
2023-05-14T14:17:18.106Z,3.22
2023-05-14T14:19:45.264Z,3.40
2023-05-14T14:22:13.964Z,3.70
2023-05-14T14:24:41.033Z,3.35
2023-05-14T14:27:08.636Z,3.28
2023-05-14T14:29:36.641Z,3.08
2023-05-14T14:32:04.352Z,3.25
2023-05-14T14:34:31.529Z,3.25
2023-05-14T14:36:58.593Z,3.42
2023-05-14T14:39:26.518Z,3.55
2023-05-14T14:41:53.618Z,3.13
2023-05-14T14:44:22.204Z,3.15
2023-05-14T14:46:49.231Z,3.35
2023-05-14T14:49:16.375Z,3.28
2023-05-14T14:51:43.531Z,3.22
2023-05-14T14:54:10.668Z,3.22
2023-05-14T14:56:37.885Z,3.22
2023-05-14T14:59:05.012Z,3.00
2023-05-14T15:01:32.154Z,2.80
2023-05-14T15:03:59.269Z,3.08
2023-05-14T15:06:26.349Z,3.10
2023-05-14T15:08:53.399Z,3.30
2023-05-14T15:11:20.830Z,2.90
2023-05-14T15:13:47.901Z,3.75
2023-05-14T15:16:15.551Z,3.38
2023-05-14T15:18:42.822Z,3.63
2023-05-14T15:21:09.909Z,3.65
2023-05-14T15:23:37.214Z,3.80
2023-05-14T15:26:05.239Z,3.25
2023-05-14T15:28:32.341Z,3.65
2023-05-14T15:30:59.741Z,3.80
2023-05-14T15:33:26.937Z,4.30
2023-05-14T15:35:54.019Z,3.55
2023-05-14T15:38:21.126Z,3.67
2023-05-14T15:40:48.900Z,3.00
2023-05-14T15:43:15.971Z,3.63
2023-05-14T15:45:44.544Z,4.38
2023-05-14T15:48:11.725Z,3.95
2023-05-14T15:50:38.993Z,4.20
2023-05-14T15:53:06.059Z,4.38
2023-05-14T15:55:33.448Z,4.07
2023-05-14T15:58:00.585Z,3.88
2023-05-14T16:00:27.690Z,4.00
2023-05-14T16:02:54.889Z,3.72
2023-05-14T16:05:22.134Z,4.05
2023-05-14T16:07:49.392Z,4.00
2023-05-14T16:10:16.533Z,4.03
2023-05-14T16:12:43.593Z,4.07
2023-05-14T16:15:10.915Z,3.50
2023-05-14T16:17:38.095Z,3.65
2023-05-14T16:20:05.509Z,3.20
2023-05-14T16:22:34.589Z,4.35
2023-05-14T16:25:03.422Z,4.45
2023-05-14T16:27:31.604Z,7.20
2023-05-14T16:29:58.709Z,8.18
2023-05-14T16:32:25.987Z,6.93
2023-05-14T16:34:53.172Z,6.93
2023-05-14T16:37:20.620Z,5.43
2023-05-14T16:39:47.774Z,5.43
2023-05-14T16:42:15.040Z,5.13
2023-05-14T16:44:42.118Z,3.70
2023-05-14T16:47:09.444Z,4.10
2023-05-14T16:49:36.480Z,3.72
2023-05-14T16:52:03.536Z,3.70
2023-05-14T16:54:30.653Z,3.90
2023-05-14T16:56:57.698Z,3.70
2023-05-14T16:59:25.286Z,4.13
2023-05-14T17:01:52.408Z,4.30
2023-05-14T17:04:19.621Z,4.85
2023-05-14T17:06:46.856Z,4.43
2023-05-14T17:09:14.016Z,4.20
2023-05-14T17:11:41.103Z,3.97
2023-05-14T17:14:08.162Z,4.25
2023-05-14T17:16:35.467Z,3.97
2023-05-14T17:19:02.616Z,4.03
2023-05-14T17:21:29.728Z,4.28
2023-05-14T17:23:56.965Z,4.40
2023-05-14T17:26:24.039Z,4.55
2023-05-14T17:28:51.115Z,4.40
2023-05-14T17:31:18.460Z,3.90
2023-05-14T17:33:45.564Z,4.47
2023-05-14T17:36:12.631Z,4.80
2023-05-14T17:38:39.828Z,4.47
2023-05-14T17:41:06.877Z,4.88
2023-05-14T17:43:33.969Z,5.03
2023-05-14T17:46:01.132Z,4.30
2023-05-14T17:48:28.226Z,6.00
2023-05-14T17:50:55.584Z,4.63
2023-05-14T17:53:22.746Z,5.00
2023-05-14T17:55:50.166Z,5.68
2023-05-14T17:58:17.382Z,6.80
2023-05-14T18:00:44.592Z,6.47
2023-05-14T18:03:12.001Z,7.97
2023-05-14T18:05:39.215Z,6.80
2023-05-14T18:08:06.570Z,7.68
2023-05-14T18:10:33.640Z,7.80
2023-05-14T18:13:00.893Z,7.72
2023-05-14T18:15:28.140Z,8.10
2023-05-14T18:17:55.262Z,8.15
2023-05-14T18:20:22.360Z,7.43
2023-05-14T18:22:50.737Z,6.55
2023-05-14T18:25:17.908Z,7.35
2023-05-14T18:27:45.533Z,7.72
2023-05-14T18:30:14.488Z,7.32
2023-05-14T18:32:43.585Z,7.18
2023-05-14T18:35:11.122Z,7.57
2023-05-14T18:37:39.158Z,7.47
2023-05-14T18:40:07.020Z,7.55
2023-05-14T18:42:34.711Z,7.78
2023-05-14T18:45:02.288Z,6.93
2023-05-14T18:47:29.458Z,7.45
2023-05-14T18:49:58.960Z,7.15
2023-05-14T18:52:26.481Z,6.53
2023-05-14T18:54:54.608Z,7.57
2023-05-14T18:57:22.136Z,8.25
2023-05-14T18:59:49.246Z,7.65
2023-05-14T19:02:16.570Z,8.27
2023-05-14T19:04:52.185Z,8.10
2023-05-14T19:07:20.481Z,7.40
2023-05-14T19:09:47.571Z,7.18
2023-05-14T19:12:15.412Z,7.05
2023-05-14T19:14:42.548Z,7.32
2023-05-14T19:17:09.819Z,7.53
2023-05-14T19:19:37.737Z,7.00
2023-05-14T19:22:04.963Z,7.47
2023-05-14T19:24:32.076Z,6.97
2023-05-14T19:26:59.184Z,7.53
2023-05-14T19:29:26.291Z,7.75
2023-05-14T19:31:53.409Z,8.98
2023-05-14T19:34:20.530Z,9.27
2023-05-14T19:36:47.654Z,9.25
2023-05-14T19:39:14.779Z,9.65
2023-05-14T19:41:41.936Z,10.68
2023-05-14T19:44:09.053Z,9.85
2023-05-14T19:46:36.327Z,9.50
2023-05-14T19:49:03.455Z,10.45
2023-05-14T19:51:30.620Z,11.10
2023-05-14T19:53:57.709Z,10.77
2023-05-14T19:56:26.532Z,9.70
2023-05-14T19:58:54.611Z,10.25
2023-05-14T20:01:21.772Z,10.32
2023-05-14T20:03:48.972Z,10.10
2023-05-14T20:06:17.497Z,10.45
2023-05-14T20:08:47.601Z,11.15
2023-05-14T20:11:15.684Z,9.90
2023-05-14T20:13:42.902Z,10.48
2023-05-14T20:16:10.096Z,10.63
2023-05-14T20:18:37.173Z,11.65
2023-05-14T20:21:04.441Z,11.50
2023-05-14T20:23:32.292Z,12.40
2023-05-14T20:26:01.751Z,11.65
2023-05-14T20:28:28.962Z,11.88
2023-05-14T20:30:58.700Z,12.10
2023-05-14T20:33:26.408Z,11.65
2023-05-14T20:35:53.495Z,11.02
2023-05-14T20:38:21.650Z,11.70
2023-05-14T20:40:48.780Z,12.38
2023-05-14T20:43:16.111Z,11.63
2023-05-14T20:45:43.185Z,12.23
2023-05-14T20:48:12.108Z,12.07
2023-05-14T20:50:39.331Z,10.90
2023-05-14T20:53:06.482Z,10.98
2023-05-14T20:55:33.596Z,11.75
2023-05-14T20:58:00.702Z,11.93
2023-05-14T21:00:27.861Z,11.55
2023-05-14T21:02:55.105Z,12.45
2023-05-14T21:05:22.354Z,11.65
2023-05-14T21:07:49.468Z,11.55
2023-05-14T21:10:17.094Z,11.85
2023-05-14T21:12:44.868Z,11.77
2023-05-14T21:15:12.248Z,12.02
2023-05-14T21:17:39.378Z,11.43
2023-05-14T21:20:06.898Z,11.98
2023-05-14T21:22:34.039Z,11.93
2023-05-14T21:25:01.187Z,10.95
2023-05-14T21:27:28.343Z,10.27
2023-05-14T21:29:55.392Z,11.38
2023-05-14T21:32:22.559Z,9.90
2023-05-14T21:34:49.742Z,12.20
2023-05-14T21:37:16.951Z,11.35
2023-05-14T21:39:44.057Z,10.35
2023-05-14T21:42:11.131Z,11.10
2023-05-14T21:44:38.276Z,9.95
2023-05-14T21:47:05.672Z,9.90
2023-05-14T21:49:32.811Z,10.40
2023-05-14T21:52:00.243Z,9.95
2023-05-14T21:54:27.336Z,8.93
2023-05-14T21:56:54.534Z,8.50
2023-05-14T21:59:21.675Z,10.13
2023-05-14T22:02:05.707Z,10.30
2023-05-14T22:04:34.307Z,11.68
2023-05-14T22:07:01.559Z,12.13
2023-05-14T22:09:28.955Z,13.10
2023-05-14T22:11:56.079Z,13.45
2023-05-14T22:14:23.227Z,13.90
2023-05-14T22:16:50.575Z,14.20
2023-05-14T22:19:17.908Z,14.18
2023-05-14T22:21:45.032Z,13.07
2023-05-14T22:24:12.115Z,12.60
2023-05-14T22:26:39.213Z,12.68
2023-05-14T22:29:06.302Z,12.68
2023-05-14T22:31:33.437Z,12.93
2023-05-14T22:34:00.701Z,12.80
2023-05-14T22:36:27.851Z,12.00
2023-05-14T22:38:54.916Z,13.30
2023-05-14T22:41:22.179Z,13.38
2023-05-14T22:43:49.422Z,11.40
2023-05-14T22:46:16.673Z,12.38
2023-05-14T22:48:44.934Z,12.27
2023-05-14T22:51:11.988Z,12.15
2023-05-14T22:53:39.108Z,11.00
2023-05-14T22:56:06.354Z,11.95
2023-05-14T22:58:33.417Z,11.55
2023-05-14T23:01:00.586Z,11.80
2023-05-14T23:03:27.687Z,11.55
2023-05-14T23:05:54.757Z,10.60
2023-05-14T23:08:21.840Z,10.15
2023-05-14T23:10:48.912Z,10.88
2023-05-14T23:13:15.996Z,11.32
2023-05-14T23:15:43.579Z,11.13
2023-05-14T23:18:10.796Z,12.30
2023-05-14T23:20:37.967Z,14.52
2023-05-14T23:23:05.069Z,13.93
2023-05-14T23:25:32.623Z,13.75
2023-05-14T23:27:59.720Z,12.90
2023-05-14T23:30:26.873Z,12.40
2023-05-14T23:32:54.039Z,10.95
2023-05-14T23:35:21.131Z,11.90
2023-05-14T23:37:49.524Z,11.82
2023-05-14T23:40:16.782Z,12.25
2023-05-14T23:42:44.775Z,12.70
2023-05-14T23:45:12.738Z,12.00
2023-05-14T23:47:40.913Z,11.65
2023-05-14T23:50:08.174Z,11.85
2023-05-14T23:52:35.359Z,11.57
2023-05-14T23:55:02.529Z,11.50
2023-05-14T23:57:29.679Z,12.07
2023-05-14T23:59:56.792Z,11.43
